Time;durP1;ratioP1;P1;durP2;ratioP2;P2;SDS_P1;SDS_P2;PMS_P1;PMS_P2;Temp;Humidity;BMP_temperature;BMP_pressure;BME280_temperature;BME280_humidity;BME280_pressure;Samples;Min_cycle;Max_cycle;Signal;HPM_P1;HPM_P2
2023/11/07 00:02:21;;;;;;;8.07;7.37;;;20.90;76.60;;;;;;5050911;28;20479;-67
2023/11/07 00:04:48;;;;;;;7.80;7.17;;;20.90;76.60;;;;;;5050939;28;20768;-67
2023/11/07 00:07:15;;;;;;;9.27;6.37;;;20.80;76.50;;;;;;5050429;28;20491;-67
2023/11/07 00:09:42;;;;;;;6.63;6.03;;;20.90;76.70;;;;;;5050527;28;20498;-67
2023/11/07 00:12:11;;;;;;;7.90;6.47;;;20.80;76.60;;;;;;5050842;28;20472;-66
2023/11/07 00:14:37;;;;;;;7.30;6.53;;;20.80;76.60;;;;;;5051820;28;20455;-67
2023/11/07 00:17:04;;;;;;;6.60;6.00;;;20.80;76.60;;;;;;5054395;28;20510;-66
2023/11/07 00:19:30;;;;;;;7.63;6.93;;;20.80;76.50;;;;;;5054193;28;20488;-66
2023/11/07 00:21:58;;;;;;;6.90;6.20;;;20.80;76.50;;;;;;5054032;28;20475;-67
2023/11/07 00:24:25;;;;;;;7.60;6.37;;;20.80;76.50;;;;;;5054066;28;20212;-66
2023/11/07 00:26:52;;;;;;;7.73;6.13;;;20.80;76.50;;;;;;5054086;28;20471;-67
2023/11/07 00:29:21;;;;;;;7.00;6.30;;;20.80;76.40;;;;;;5054141;28;20491;-67
2023/11/07 00:31:48;;;;;;;7.40;6.60;;;20.80;76.40;;;;;;5054162;28;20452;-67
2023/11/07 00:34:16;;;;;;;6.23;5.47;;;20.80;76.40;;;;;;5054010;28;20448;-67
2023/11/07 00:36:43;;;;;;;6.87;6.17;;;20.80;76.40;;;;;;5053310;28;20990;-67
2023/11/07 00:39:11;;;;;;;5.60;5.20;;;20.80;76.40;;;;;;5053833;28;20464;-67
2023/11/07 00:41:38;;;;;;;5.30;4.90;;;20.80;76.40;;;;;;5053938;28;20502;-67
2023/11/07 00:44:06;;;;;;;7.77;7.10;;;20.80;76.40;;;;;;5053718;28;20523;-67
2023/11/07 00:46:34;;;;;;;5.50;5.00;;;20.80;76.40;;;;;;5053475;28;20486;-67
2023/11/07 00:49:01;;;;;;;5.67;4.90;;;20.80;76.40;;;;;;5045580;28;20470;-67
2023/11/07 00:51:28;;;;;;;4.90;4.50;;;20.70;76.30;;;;;;5053834;28;20916;-67
2023/11/07 00:53:55;;;;;;;6.03;5.43;;;20.80;76.40;;;;;;5053447;28;20480;-67
2023/11/07 00:56:22;;;;;;;5.83;5.20;;;20.70;76.20;;;;;;5053469;28;20503;-67
2023/11/07 00:58:48;;;;;;;5.50;5.10;;;20.70;76.30;;;;;;5053379;28;20874;-67
2023/11/07 01:01:17;;;;;;;8.57;5.37;;;20.70;76.40;;;;;;5053556;28;20467;-67
2023/11/07 01:03:45;;;;;;;5.03;4.70;;;20.70;76.40;;;;;;5053238;28;20819;-67
2023/11/07 01:06:12;;;;;;;5.90;5.30;;;20.70;76.40;;;;;;5053443;28;20464;-67
2023/11/07 01:08:39;;;;;;;6.43;5.40;;;20.70;76.40;;;;;;5053452;28;20487;-67
2023/11/07 01:11:06;;;;;;;5.90;5.40;;;20.70;76.40;;;;;;5053414;28;20566;-67
2023/11/07 01:13:33;;;;;;;6.40;5.90;;;20.70;76.40;;;;;;5053064;28;20484;-67
2023/11/07 01:16:00;;;;;;;5.47;5.03;;;20.70;76.50;;;;;;5053163;28;20504;-67
2023/11/07 01:18:27;;;;;;;5.20;4.77;;;20.70;76.40;;;;;;5053105;28;20495;-67
2023/11/07 01:20:57;;;;;;;4.83;4.43;;;20.70;76.40;;;;;;5052935;28;20828;-67
2023/11/07 01:23:24;;;;;;;5.00;4.60;;;20.70;76.50;;;;;;5052916;28;20452;-67
2023/11/07 01:25:50;;;;;;;5.10;4.17;;;20.60;76.40;;;;;;5052374;28;20471;-67
2023/11/07 01:28:20;;;;;;;4.93;4.53;;;20.60;76.40;;;;;;5052864;28;20503;-67
2023/11/07 01:30:48;;;;;;;6.97;5.47;;;20.60;76.40;;;;;;5053031;28;20471;-67
2023/11/07 01:33:15;;;;;;;4.87;4.50;;;20.60;76.40;;;;;;5052794;28;20534;-67
2023/11/07 01:35:42;;;;;;;5.23;4.60;;;20.60;76.40;;;;;;5052534;28;21053;-67
2023/11/07 01:38:10;;;;;;;4.40;4.13;;;20.60;76.40;;;;;;5052662;28;20445;-67
2023/11/07 01:40:37;;;;;;;4.90;4.47;;;20.60;76.40;;;;;;5052611;28;20486;-67
2023/11/07 01:43:12;;;;;;;5.00;4.67;;;20.60;76.50;;;;;;5052497;28;20873;-67
2023/11/07 01:45:39;;;;;;;4.23;3.93;;;20.60;76.50;;;;;;5052554;28;20444;-67
2023/11/07 01:48:09;;;;;;;5.43;5.10;;;20.60;76.50;;;;;;5052523;28;20983;-67
2023/11/07 01:50:36;;;;;;;4.47;4.17;;;20.60;76.50;;;;;;5052481;28;20447;-67
2023/11/07 01:53:04;;;;;;;7.03;4.47;;;20.60;76.50;;;;;;5052572;28;20820;-67
2023/11/07 01:55:33;;;;;;;4.43;4.17;;;20.60;76.50;;;;;;5052543;28;20475;-67
2023/11/07 01:58:01;;;;;;;4.83;4.53;;;20.60;76.50;;;;;;5052163;28;20486;-67
2023/11/07 02:00:29;;;;;;;4.47;4.07;;;20.60;76.50;;;;;;5052607;28;20436;-68
2023/11/07 02:02:57;;;;;;;4.73;4.37;;;20.60;76.50;;;;;;5051900;28;20475;-67
2023/11/07 02:05:25;;;;;;;4.80;4.40;;;20.60;76.50;;;;;;5052166;28;20451;-67
2023/11/07 02:07:52;;;;;;;3.97;3.77;;;20.60;76.50;;;;;;5052074;28;20444;-67
2023/11/07 02:10:19;;;;;;;4.40;4.10;;;20.60;76.50;;;;;;5050679;28;21269;-67
2023/11/07 02:12:47;;;;;;;4.47;4.17;;;20.50;76.40;;;;;;5050769;28;20449;-67
2023/11/07 02:15:34;;;;;;;4.37;4.10;;;20.50;76.40;;;;;;5051763;28;20495;-67
2023/11/07 02:18:01;;;;;;;4.67;4.37;;;20.50;76.50;;;;;;5051797;28;20451;-67
2023/11/07 02:20:30;;;;;;;4.50;4.30;;;20.50;76.40;;;;;;5047430;28;20471;-67
2023/11/07 02:23:04;;;;;;;5.30;4.93;;;20.50;76.50;;;;;;5051838;28;20456;-67
2023/11/07 02:25:32;;;;;;;5.00;4.60;;;20.50;76.50;;;;;;5051907;28;20475;-67
2023/11/07 02:27:59;;;;;;;4.80;4.50;;;20.50;76.60;;;;;;5051709;28;20472;-67
2023/11/07 02:30:26;;;;;;;4.27;3.77;;;20.50;76.60;;;;;;5051801;28;20488;-67
2023/11/07 02:32:53;;;;;;;4.43;4.17;;;20.50;76.60;;;;;;5051880;28;20480;-67
2023/11/07 02:35:20;;;;;;;4.17;3.97;;;20.50;76.60;;;;;;5051579;28;20445;-67
2023/11/07 02:37:48;;;;;;;3.53;3.43;;;20.40;76.50;;;;;;5051459;28;20516;-66
2023/11/07 02:40:15;;;;;;;3.90;3.67;;;20.50;76.60;;;;;;5051382;28;20518;-67
2023/11/07 02:42:43;;;;;;;4.23;3.93;;;20.50;76.60;;;;;;5051506;28;20441;-67
2023/11/07 02:45:11;;;;;;;3.87;3.67;;;20.50;76.60;;;;;;5051842;28;20448;-67
2023/11/07 02:47:38;;;;;;;3.90;3.80;;;20.50;76.70;;;;;;5051873;28;20468;-67
2023/11/07 02:50:07;;;;;;;4.33;4.13;;;20.50;77.30;;;;;;5047761;28;20495;-67
2023/11/07 02:52:34;;;;;;;3.97;3.87;;;20.50;76.60;;;;;;5051488;28;20447;-67
2023/11/07 02:55:01;;;;;;;3.90;3.67;;;20.50;76.60;;;;;;5051391;28;20447;-67
2023/11/07 02:57:28;;;;;;;3.70;3.60;;;20.50;76.60;;;;;;5051411;28;20836;-66
2023/11/07 02:59:56;;;;;;;5.00;4.60;;;20.50;76.60;;;;;;5051374;28;20503;-68
2023/11/07 03:02:24;;;;;;;4.90;4.60;;;20.50;76.60;;;;;;5051307;28;20472;-67
2023/11/07 03:04:54;;;;;;;3.97;3.77;;;20.40;76.60;;;;;;5051259;28;20452;-67
2023/11/07 03:07:21;;;;;;;3.83;3.73;;;20.40;76.60;;;;;;5051359;28;20458;-67
2023/11/07 03:09:48;;;;;;;4.07;3.80;;;20.40;76.60;;;;;;5051111;28;20502;-68
2023/11/07 03:12:16;;;;;;;3.40;3.10;;;20.40;76.70;;;;;;5051476;28;20498;-69
2023/11/07 03:14:43;;;;;;;3.47;3.33;;;20.40;76.60;;;;;;5051313;28;20803;-68
2023/11/07 03:17:11;;;;;;;4.50;4.30;;;20.50;76.70;;;;;;5051132;28;20925;-68
2023/11/07 03:19:38;;;;;;;3.50;3.40;;;20.40;76.60;;;;;;5051242;28;20496;-68
2023/11/07 03:22:05;;;;;;;2.83;2.73;;;20.40;76.70;;;;;;5051075;28;20480;-68
2023/11/07 03:24:32;;;;;;;3.80;3.60;;;20.40;76.70;;;;;;5051229;28;20479;-68
2023/11/07 03:26:59;;;;;;;3.30;3.20;;;20.40;76.70;;;;;;5050785;28;20452;-67
2023/11/07 03:29:27;;;;;;;3.40;3.30;;;20.40;76.70;;;;;;5051020;28;20488;-68
2023/11/07 03:31:56;;;;;;;3.50;3.30;;;20.40;76.70;;;;;;5051013;28;20951;-68
2023/11/07 03:34:24;;;;;;;3.20;3.10;;;20.40;76.70;;;;;;5051461;28;20444;-68
2023/11/07 03:36:51;;;;;;;3.27;3.13;;;20.40;76.70;;;;;;5050816;28;20475;-68
2023/11/07 03:39:18;;;;;;;3.33;3.23;;;20.40;76.70;;;;;;5051120;28;20492;-68
2023/11/07 03:41:46;;;;;;;3.37;3.27;;;20.40;76.70;;;;;;5051174;28;20479;-68
2023/11/07 03:44:13;;;;;;;3.37;3.27;;;20.40;76.80;;;;;;5051056;28;20531;-68
2023/11/07 03:46:40;;;;;;;3.30;3.20;;;20.30;76.70;;;;;;5050821;28;20528;-68
2023/11/07 03:49:08;;;;;;;4.23;3.70;;;20.40;76.80;;;;;;5042954;28;20471;-68
2023/11/07 03:51:36;;;;;;;3.43;3.23;;;20.30;76.70;;;;;;5054993;28;20444;-68
2023/11/07 03:54:03;;;;;;;3.20;3.10;;;20.40;76.90;;;;;;5054789;28;20882;-68
2023/11/07 03:56:30;;;;;;;3.40;3.20;;;20.30;76.70;;;;;;5054375;28;20536;-67
2023/11/07 03:58:57;;;;;;;3.27;3.17;;;20.30;76.70;;;;;;5054363;28;20496;-68
2023/11/07 04:01:24;;;;;;;3.20;3.13;;;20.40;76.70;;;;;;5054639;28;20479;-68
2023/11/07 04:03:51;;;;;;;3.70;3.53;;;20.30;76.60;;;;;;5054556;28;20472;-68
2023/11/07 04:06:18;;;;;;;3.30;3.20;;;20.30;76.60;;;;;;5054521;28;20487;-69
2023/11/07 04:08:46;;;;;;;3.23;3.03;;;20.30;76.60;;;;;;5054362;28;20472;-68
2023/11/07 04:11:14;;;;;;;3.07;2.87;;;20.30;76.60;;;;;;5054607;28;20883;-68
2023/11/07 04:13:42;;;;;;;3.70;3.60;;;20.30;76.60;;;;;;5054448;28;20943;-68
2023/11/07 04:16:09;;;;;;;3.40;3.30;;;20.30;76.60;;;;;;5045975;28;20456;-68
2023/11/07 04:18:36;;;;;;;3.10;3.00;;;20.30;76.50;;;;;;5054655;28;20500;-66
2023/11/07 04:21:04;;;;;;;3.77;3.67;;;20.30;76.60;;;;;;5054364;28;20476;-68
2023/11/07 04:23:31;;;;;;;3.53;3.37;;;20.30;76.50;;;;;;5054240;28;20508;-67
2023/11/07 04:25:59;;;;;;;3.27;3.07;;;20.30;76.90;;;;;;5053866;28;20448;-68
2023/11/07 04:28:26;;;;;;;3.20;3.17;;;20.40;76.60;;;;;;5054081;28;20480;-68
2023/11/07 04:30:53;;;;;;;3.73;3.53;;;20.30;76.50;;;;;;5053940;28;20820;-68
2023/11/07 04:33:21;;;;;;;3.70;3.60;;;20.30;76.50;;;;;;5054082;28;20472;-68
2023/11/07 04:35:48;;;;;;;3.77;3.67;;;20.40;76.60;;;;;;5052797;28;20929;-69
2023/11/07 04:38:16;;;;;;;4.10;4.00;;;20.40;76.50;;;;;;5053602;28;20562;-67
2023/11/07 04:40:44;;;;;;;3.43;3.33;;;20.30;76.40;;;;;;5053349;28;20451;-67
2023/11/07 04:43:12;;;;;;;3.40;3.30;;;20.30;76.40;;;;;;5045797;28;20499;-67
2023/11/07 04:45:39;;;;;;;3.93;3.73;;;20.30;76.40;;;;;;5053376;28;20480;-67
2023/11/07 04:48:07;;;;;;;3.80;3.70;;;20.30;77.10;;;;;;5053774;28;20470;-68
2023/11/07 04:50:34;;;;;;;3.50;3.40;;;20.30;76.30;;;;;;5053690;28;20946;-68
2023/11/07 04:53:04;;;;;;;3.23;3.23;;;20.30;76.30;;;;;;5053549;28;20928;-67
2023/11/07 04:55:31;;;;;;;3.83;3.73;;;20.30;76.30;;;;;;5053474;28;20506;-68
2023/11/07 04:57:58;;;;;;;3.53;3.33;;;20.30;77.10;;;;;;5053281;28;20819;-68
2023/11/07 05:00:28;;;;;;;4.03;3.93;;;20.40;76.40;;;;;;5053346;28;20834;-68
2023/11/07 05:02:55;;;;;;;3.50;3.40;;;20.30;76.40;;;;;;5053279;28;20502;-68
2023/11/07 05:05:22;;;;;;;3.60;3.50;;;20.30;76.40;;;;;;5047040;28;20440;-68
2023/11/07 05:07:49;;;;;;;3.87;3.67;;;20.30;76.40;;;;;;5053153;28;20468;-68
2023/11/07 05:10:16;;;;;;;3.47;3.37;;;20.30;76.40;;;;;;5053237;28;20496;-67
2023/11/07 05:12:43;;;;;;;3.50;3.40;;;20.30;76.40;;;;;;5053665;28;20476;-68
2023/11/07 05:15:10;;;;;;;3.60;3.53;;;20.30;76.40;;;;;;5052941;28;20480;-67
2023/11/07 05:17:39;;;;;;;3.70;3.60;;;20.30;76.40;;;;;;5053031;28;20476;-68
2023/11/07 05:20:10;;;;;;;5.43;4.90;;;20.30;76.40;;;;;;5052989;28;20463;-67
2023/11/07 05:22:37;;;;;;;5.60;5.03;;;20.30;77.20;;;;;;5053240;28;20539;-68
2023/11/07 05:25:07;;;;;;;6.30;5.20;;;20.40;79.60;;;;;;5053276;28;20444;-68
2023/11/07 05:27:34;;;;;;;6.57;5.40;;;20.40;82.40;;;;;;5053389;28;20446;-68
2023/11/07 05:30:01;;;;;;;16.07;7.93;;;20.40;82.40;;;;;;5053036;28;20549;-68
2023/11/07 05:32:28;;;;;;;10.97;6.57;;;20.50;83.70;;;;;;5053099;28;20521;-67
2023/11/07 05:34:57;;;;;;;24.03;8.70;;;20.50;91.10;;;;;;5053028;28;20522;-70
2023/11/07 05:37:24;;;;;;;13.23;6.47;;;20.50;95.20;;;;;;5052889;28;20537;-70
2023/11/07 05:39:51;;;;;;;17.83;7.40;;;20.50;96.30;;;;;;5052751;28;20982;-67
2023/11/07 05:42:19;;;;;;;15.77;6.37;;;20.50;96.50;;;;;;5052611;28;20472;-66
2023/11/07 05:44:46;;;;;;;18.30;8.90;;;20.50;96.80;;;;;;5052573;28;20498;-66
2023/11/07 05:47:13;;;;;;;15.03;8.00;;;20.50;96.30;;;;;;5044552;28;20936;-66
2023/11/07 05:49:40;;;;;;;21.80;8.30;;;20.40;95.60;;;;;;5052443;28;20522;-66
2023/11/07 05:52:09;;;;;;;16.33;6.63;;;20.40;94.90;;;;;;5052553;28;20479;-66
2023/11/07 05:54:36;;;;;;;10.70;6.73;;;20.40;94.60;;;;;;5052523;28;20440;-66
2023/11/07 05:57:03;;;;;;;18.17;6.63;;;20.40;93.90;;;;;;5052078;28;20514;-66
2023/11/07 05:59:30;;;;;;;10.73;7.13;;;20.40;93.60;;;;;;5052168;28;20524;-67
2023/11/07 06:01:57;;;;;;;16.10;9.20;;;20.40;93.20;;;;;;5052284;28;20440;-66
2023/11/07 06:04:31;;;;;;;17.70;6.80;;;20.40;92.80;;;;;;5052346;28;20444;-66
2023/11/07 06:06:59;;;;;;;11.67;6.93;;;20.40;92.50;;;;;;5052440;28;20456;-66
2023/11/07 06:09:28;;;;;;;11.63;6.60;;;20.40;92.20;;;;;;5052334;28;20552;-66
2023/11/07 06:11:55;;;;;;;8.60;7.07;;;20.40;92.00;;;;;;5051475;28;20835;-66
2023/11/07 06:14:22;;;;;;;7.33;6.63;;;20.40;91.60;;;;;;5051993;28;20472;-66
2023/11/07 06:16:49;;;;;;;9.93;7.60;;;20.40;91.40;;;;;;5051608;28;20444;-66
2023/11/07 06:19:16;;;;;;;13.63;5.03;;;20.40;91.10;;;;;;5051882;28;20491;-67
2023/11/07 06:21:43;;;;;;;6.50;5.80;;;20.40;90.90;;;;;;5052011;28;20506;-67
2023/11/07 06:24:10;;;;;;;7.27;5.70;;;20.40;90.70;;;;;;5051800;28;20456;-66
2023/11/07 06:26:39;;;;;;;8.87;5.70;;;20.40;90.50;;;;;;5051825;28;20448;-66
2023/11/07 06:29:06;;;;;;;7.90;5.23;;;20.40;90.30;;;;;;5051624;28;20547;-66
2023/11/07 06:31:34;;;;;;;8.13;4.80;;;20.40;90.20;;;;;;5051740;28;20445;-66
2023/11/07 06:34:03;;;;;;;9.00;5.17;;;20.40;90.00;;;;;;5051746;28;20479;-67
2023/11/07 06:36:30;;;;;;;5.43;4.93;;;20.40;89.80;;;;;;5051635;28;20452;-66
2023/11/07 06:38:58;;;;;;;8.00;5.43;;;20.40;89.40;;;;;;5051476;28;20515;-66
2023/11/07 06:41:25;;;;;;;7.07;5.50;;;20.40;89.20;;;;;;5051689;28;20444;-66
2023/11/07 06:43:53;;;;;;;6.13;5.60;;;20.30;88.80;;;;;;5051408;28;20441;-66
2023/11/07 06:46:20;;;;;;;6.67;5.97;;;20.40;88.60;;;;;;5051636;28;20958;-66
2023/11/07 06:48:48;;;;;;;6.60;5.90;;;20.40;88.40;;;;;;5051701;28;20499;-66
2023/11/07 06:51:16;;;;;;;8.30;5.30;;;20.40;88.10;;;;;;5043550;28;20440;-67
2023/11/07 06:53:43;;;;;;;13.27;5.73;;;20.30;88.50;;;;;;5051540;28;20476;-67
2023/11/07 06:56:10;;;;;;;11.27;6.50;;;20.30;87.50;;;;;;5051383;28;20480;-67
2023/11/07 06:58:37;;;;;;;8.33;5.37;;;20.30;87.30;;;;;;5051109;28;20514;-67
2023/11/07 07:01:05;;;;;;;6.80;5.23;;;20.30;87.00;;;;;;5051208;28;20476;-67
2023/11/07 07:03:33;;;;;;;5.73;5.10;;;20.30;86.90;;;;;;5051210;28;20472;-67
2023/11/07 07:06:00;;;;;;;9.27;6.60;;;20.30;86.60;;;;;;5051143;28;20823;-66
2023/11/07 07:08:27;;;;;;;6.87;5.73;;;20.30;86.50;;;;;;5051225;28;20460;-66
2023/11/07 07:10:54;;;;;;;5.70;4.73;;;20.30;86.30;;;;;;5051090;28;20447;-67
2023/11/07 07:13:22;;;;;;;5.67;5.17;;;20.30;86.20;;;;;;5051156;28;20867;-66
2023/11/07 07:15:50;;;;;;;6.80;5.03;;;20.30;85.90;;;;;;5051264;28;20448;-66
2023/11/07 07:18:22;;;;;;;8.33;6.23;;;20.30;85.80;;;;;;5043002;28;20482;-66
2023/11/07 07:20:53;;;;;;;8.07;4.70;;;20.30;85.60;;;;;;5051198;28;20444;-67
2023/11/07 07:23:24;;;;;;;5.90;5.07;;;20.30;85.40;;;;;;5043745;28;20447;-66
2023/11/07 07:25:51;;;;;;;5.57;5.00;;;20.30;85.30;;;;;;5054440;28;20460;-67
2023/11/07 07:28:20;;;;;;;6.27;5.70;;;20.30;85.10;;;;;;5054939;28;20940;-66
2023/11/07 07:30:47;;;;;;;5.67;5.27;;;20.30;85.00;;;;;;5055028;28;20456;-66
2023/11/07 07:33:16;;;;;;;5.90;5.40;;;20.30;84.90;;;;;;5055028;28;20440;-66
2023/11/07 07:35:45;;;;;;;7.10;5.90;;;20.30;84.80;;;;;;5055067;28;20927;-66
2023/11/07 07:38:12;;;;;;;6.30;5.70;;;20.30;84.70;;;;;;5054916;28;20464;-66
2023/11/07 07:40:39;;;;;;;8.73;4.60;;;20.30;84.50;;;;;;5054918;28;20478;-66
2023/11/07 07:43:10;;;;;;;7.63;5.57;;;20.30;84.30;;;;;;5054871;28;20506;-66
2023/11/07 07:45:39;;;;;;;5.87;5.33;;;20.30;84.20;;;;;;5054979;28;20851;-66
2023/11/07 07:48:07;;;;;;;5.23;4.73;;;20.30;84.10;;;;;;5054621;28;20437;-66
2023/11/07 07:50:34;;;;;;;4.77;4.37;;;20.30;84.00;;;;;;5054819;28;20443;-66
2023/11/07 07:53:06;;;;;;;8.00;5.30;;;20.30;83.90;;;;;;5054516;28;20495;-66
2023/11/07 07:55:33;;;;;;;7.10;6.53;;;20.30;83.80;;;;;;5054598;28;20455;-66
2023/11/07 07:58:00;;;;;;;5.60;5.13;;;20.30;83.70;;;;;;5054247;28;20511;-66
2023/11/07 08:00:30;;;;;;;5.53;5.13;;;20.30;83.60;;;;;;5054720;28;20472;-66
2023/11/07 08:02:58;;;;;;;5.27;4.90;;;20.30;83.50;;;;;;5054371;28;20789;-66
2023/11/07 08:05:27;;;;;;;6.10;4.97;;;20.30;83.40;;;;;;5054487;28;20463;-66
2023/11/07 08:07:54;;;;;;;4.50;4.20;;;20.30;83.20;;;;;;5054318;28;20449;-66
2023/11/07 08:10:26;;;;;;;4.97;4.60;;;20.30;83.20;;;;;;5054327;28;20986;-66
2023/11/07 08:12:55;;;;;;;5.30;4.90;;;20.20;82.90;;;;;;5054429;28;20525;-66
2023/11/07 08:15:22;;;;;;;7.13;6.33;;;20.30;82.90;;;;;;5054433;28;20444;-66
2023/11/07 08:17:51;;;;;;;5.17;4.77;;;20.30;82.80;;;;;;5054292;28;20518;-66
2023/11/07 08:20:19;;;;;;;5.50;5.10;;;20.30;82.70;;;;;;5054166;28;20827;-66
2023/11/07 08:22:47;;;;;;;5.30;5.00;;;20.20;82.50;;;;;;5054136;28;21039;-66
2023/11/07 08:25:17;;;;;;;4.93;4.63;;;20.30;82.50;;;;;;5053960;28;20478;-66
2023/11/07 08:27:46;;;;;;;4.80;4.50;;;20.30;82.40;;;;;;5054018;28;20466;-66
2023/11/07 08:30:14;;;;;;;5.17;4.93;;;20.20;82.30;;;;;;5053907;28;20597;-66
2023/11/07 08:32:42;;;;;;;5.37;4.97;;;20.20;82.20;;;;;;5053960;28;20509;-66
2023/11/07 08:35:11;;;;;;;5.13;4.83;;;20.20;82.00;;;;;;5053300;28;20590;-66
2023/11/07 08:37:38;;;;;;;4.50;4.20;;;20.20;81.90;;;;;;5053871;28;20484;-66
2023/11/07 08:40:08;;;;;;;4.33;4.13;;;20.30;82.00;;;;;;5053717;28;20733;-66
2023/11/07 08:42:35;;;;;;;5.27;4.97;;;20.20;81.80;;;;;;5053795;28;20503;-66
2023/11/07 08:45:04;;;;;;;4.90;4.50;;;20.20;81.80;;;;;;5053572;28;20472;-65
2023/11/07 08:47:31;;;;;;;4.33;4.23;;;20.20;81.60;;;;;;5053708;28;20879;-66
2023/11/07 08:49:58;;;;;;;5.57;5.03;;;20.20;81.50;;;;;;5053510;28;20460;-66
2023/11/07 08:52:25;;;;;;;4.97;4.67;;;20.30;81.60;;;;;;5053652;28;20472;-66
2023/11/07 08:54:52;;;;;;;4.87;4.67;;;20.30;81.50;;;;;;5053510;28;20472;-66
2023/11/07 08:57:19;;;;;;;4.83;4.57;;;20.20;81.30;;;;;;5045359;28;20444;-66
2023/11/07 08:59:46;;;;;;;5.20;4.90;;;20.20;82.00;;;;;;5077696;22;20526;-69
2023/11/07 09:02:15;;;;;;;4.40;4.20;;;20.20;81.10;;;;;;5053508;28;20436;-69
2023/11/07 09:04:43;;;;;;;5.40;5.00;;;20.20;81.10;;;;;;5053459;28;20440;-69
2023/11/07 09:07:12;;;;;;;4.53;4.27;;;20.20;81.10;;;;;;5053201;28;20444;-69
2023/11/07 09:09:39;;;;;;;5.00;4.63;;;20.20;81.00;;;;;;5047211;28;20464;-69
2023/11/07 09:12:07;;;;;;;4.20;4.10;;;20.20;81.00;;;;;;5043477;28;20448;-69
2023/11/07 09:14:35;;;;;;;4.80;4.70;;;20.20;80.80;;;;;;5044922;28;20962;-69
2023/11/07 09:17:03;;;;;;;5.07;4.80;;;20.20;80.90;;;;;;5043801;28;20469;-69
2023/11/07 09:19:32;;;;;;;5.43;5.13;;;20.20;80.70;;;;;;5041331;28;20867;-69
2023/11/07 09:22:00;;;;;;;4.40;4.30;;;20.20;80.70;;;;;;5041940;28;20534;-69
2023/11/07 09:24:26;;;;;;;5.10;4.80;;;20.20;80.50;;;;;;5044950;28;20436;-69
2023/11/07 09:26:54;;;;;;;5.30;5.07;;;20.20;80.50;;;;;;5044656;28;20974;-69
2023/11/07 09:29:21;;;;;;;4.57;4.37;;;20.20;80.40;;;;;;5044574;28;20462;-69
2023/11/07 09:31:48;;;;;;;4.50;4.30;;;20.20;80.30;;;;;;5044668;28;20447;-70
2023/11/07 09:34:15;;;;;;;4.40;4.30;;;20.20;80.30;;;;;;5041632;28;20451;-69
2023/11/07 09:36:44;;;;;;;4.27;4.10;;;20.20;80.20;;;;;;5041105;28;20443;-69
2023/11/07 09:39:11;;;;;;;4.67;4.53;;;20.20;80.20;;;;;;5043180;28;20851;-69
2023/11/07 09:41:41;;;;;;;4.57;4.47;;;20.20;80.10;;;;;;5044391;28;20439;-69
2023/11/07 09:44:10;;;;;;;4.70;4.30;;;20.20;80.00;;;;;;5042583;28;20453;-69
2023/11/07 09:46:37;;;;;;;4.70;4.53;;;20.20;80.00;;;;;;5040221;28;21180;-69
2023/11/07 09:49:07;;;;;;;4.40;4.20;;;20.20;80.00;;;;;;5041814;28;20449;-69
2023/11/07 09:51:37;;;;;;;4.60;4.50;;;20.20;80.00;;;;;;5044329;28;20826;-69
2023/11/07 09:54:07;;;;;;;5.40;5.20;;;20.20;79.90;;;;;;5042914;28;20464;-68
2023/11/07 09:56:39;;;;;;;4.47;4.30;;;20.20;79.80;;;;;;5040729;28;20441;-69
2023/11/07 09:59:16;;;;;;;4.60;4.27;;;20.20;79.80;;;;;;5041807;28;20487;-69
2023/11/07 10:01:44;;;;;;;4.50;4.40;;;20.20;79.70;;;;;;5044129;28;20440;-69
2023/11/07 10:04:15;;;;;;;6.27;5.87;;;20.20;79.60;;;;;;5041804;28;20965;-69
2023/11/07 10:06:42;;;;;;;4.70;4.50;;;20.20;79.50;;;;;;5040569;28;20801;-70
2023/11/07 10:09:14;;;;;;;5.70;5.20;;;20.20;79.50;;;;;;5041996;28;20464;-69
2023/11/07 10:11:45;;;;;;;4.93;4.83;;;20.20;79.50;;;;;;5043841;28;20816;-69
2023/11/07 10:14:12;;;;;;;4.27;4.17;;;20.20;79.50;;;;;;5041641;28;20445;-69
2023/11/07 10:16:41;;;;;;;4.50;4.40;;;20.20;79.40;;;;;;5040394;28;20983;-69
2023/11/07 10:19:15;;;;;;;4.50;4.40;;;20.20;79.40;;;;;;5041675;28;21017;-69
2023/11/07 10:21:43;;;;;;;4.70;4.50;;;20.10;79.20;;;;;;5043784;28;20875;-69
2023/11/07 10:24:11;;;;;;;4.70;4.53;;;20.10;79.20;;;;;;5041844;28;20486;-69
2023/11/07 10:26:50;;;;;;;5.00;4.80;;;20.10;79.20;;;;;;5040149;28;20476;-70
2023/11/07 10:29:25;;;;;;;4.17;4.07;;;20.20;79.20;;;;;;5042687;28;20479;-70
2023/11/07 10:32:00;;;;;;;5.27;5.07;;;20.10;79.10;;;;;;5043795;28;20444;-69
2023/11/07 10:34:27;;;;;;;4.93;4.63;;;20.10;79.00;;;;;;5032637;28;20493;-68
2023/11/07 10:36:55;;;;;;;4.90;4.70;;;20.10;79.00;;;;;;5040050;28;20483;-69
2023/11/07 10:39:25;;;;;;;4.40;4.30;;;20.10;78.90;;;;;;5043046;28;20579;-69
2023/11/07 10:41:52;;;;;;;4.33;4.23;;;20.10;78.90;;;;;;5043339;28;20440;-70
2023/11/07 10:44:25;;;;;;;4.63;4.53;;;20.10;79.00;;;;;;5040271;28;20487;-69
2023/11/07 10:46:54;;;;;;;4.63;4.53;;;20.10;78.90;;;;;;5039911;28;20457;-69
2023/11/07 10:49:21;;;;;;;4.03;3.93;;;20.10;78.90;;;;;;5042812;28;20456;-70
2023/11/07 10:51:49;;;;;;;4.13;4.03;;;20.10;78.80;;;;;;5043288;28;20472;-69
2023/11/07 10:54:19;;;;;;;4.40;4.30;;;20.10;78.80;;;;;;5040630;28;20475;-69
2023/11/07 10:56:49;;;;;;;4.40;4.30;;;20.10;78.70;;;;;;5039838;28;20441;-69
2023/11/07 10:59:20;;;;;;;5.87;5.57;;;20.10;78.70;;;;;;5041696;28;20570;-69
2023/11/07 11:01:51;;;;;;;4.50;4.40;;;20.10;78.70;;;;;;5043248;28;20471;-69
2023/11/07 11:04:21;;;;;;;4.67;4.50;;;20.10;78.60;;;;;;5040608;28;20440;-69
2023/11/07 11:06:52;;;;;;;3.90;3.80;;;20.10;78.50;;;;;;5039678;28;20440;-69
2023/11/07 11:09:21;;;;;;;4.50;4.40;;;20.10;78.40;;;;;;5042299;28;20478;-69
2023/11/07 11:11:51;;;;;;;4.70;4.50;;;20.10;78.30;;;;;;5042970;28;20472;-69
2023/11/07 11:14:19;;;;;;;4.53;4.43;;;20.20;78.40;;;;;;5040295;28;20446;-69
2023/11/07 11:16:48;;;;;;;4.40;4.30;;;20.20;78.30;;;;;;5039571;28;20453;-69
2023/11/07 11:19:24;;;;;;;4.33;4.23;;;20.20;78.20;;;;;;5041547;28;20480;-70
2023/11/07 11:21:58;;;;;;;4.60;4.40;;;20.20;78.20;;;;;;5042893;28;20442;-69
2023/11/07 11:24:37;;;;;;;4.27;4.17;;;20.20;78.20;;;;;;5039495;28;20476;-69
2023/11/07 11:27:14;;;;;;;4.40;4.30;;;20.10;78.00;;;;;;5039998;28;20433;-69
2023/11/07 11:29:46;;;;;;;4.37;4.27;;;20.10;78.00;;;;;;5043000;28;20899;-70
2023/11/07 11:32:27;;;;;;;4.50;4.40;;;20.20;78.10;;;;;;5040893;28;20535;-69
2023/11/07 11:35:25;;;;;;;4.30;4.20;;;20.20;78.10;;;;;;5039425;28;20437;-69
2023/11/07 11:38:11;;;;;;;4.43;4.13;;;20.20;78.00;;;;;;5034855;28;20469;-69
2023/11/07 11:40:54;;;;;;;4.30;4.20;;;20.20;77.90;;;;;;5032925;28;20863;-70
2023/11/07 11:43:25;;;;;;;4.43;4.33;;;20.20;77.80;;;;;;5042151;28;20570;-69
2023/11/07 11:45:52;;;;;;;4.30;4.20;;;20.20;77.70;;;;;;5042702;28;20950;-69
2023/11/07 11:48:21;;;;;;;4.23;4.03;;;20.20;77.70;;;;;;5039836;28;20982;-69
2023/11/07 11:51:09;;;;;;;4.27;4.13;;;20.20;77.70;;;;;;5039194;28;20499;-69
2023/11/07 11:53:36;;;;;;;4.10;4.00;;;20.20;77.70;;;;;;5032538;28;20452;-69
2023/11/07 11:56:12;;;;;;;4.10;3.93;;;20.20;77.70;;;;;;5039376;28;20473;-69
2023/11/07 11:58:41;;;;;;;4.10;4.00;;;20.20;77.60;;;;;;5042568;28;20511;-70
2023/11/07 12:01:10;;;;;;;4.30;4.10;;;20.10;77.50;;;;;;5041412;28;20467;-69
2023/11/07 12:03:42;;;;;;;4.10;4.00;;;20.20;77.50;;;;;;5039091;28;20483;-70
2023/11/07 12:06:10;;;;;;;3.90;3.90;;;20.20;77.40;;;;;;5040489;28;20452;-70
2023/11/07 12:08:39;;;;;;;4.27;4.17;;;20.20;77.30;;;;;;5042432;28;20464;-69
2023/11/07 12:11:06;;;;;;;4.43;4.27;;;20.20;77.30;;;;;;5043551;28;20476;-69
2023/11/07 12:13:34;;;;;;;4.50;4.40;;;20.20;77.30;;;;;;5042781;28;20860;-70
2023/11/07 12:16:20;;;;;;;4.27;4.17;;;20.20;77.30;;;;;;5042583;28;20851;-69
2023/11/07 12:18:50;;;;;;;3.80;3.80;;;20.20;78.00;;;;;;5037339;28;20842;-69
2023/11/07 12:21:23;;;;;;;4.30;4.20;;;20.20;77.20;;;;;;5044706;28;20443;-70
2023/11/07 12:23:52;;;;;;;4.20;4.10;;;20.20;77.20;;;;;;5046009;28;20451;-69
2023/11/07 12:26:19;;;;;;;4.20;4.17;;;20.20;77.20;;;;;;5043531;28;20444;-69
2023/11/07 12:28:46;;;;;;;4.07;3.97;;;20.20;77.20;;;;;;5042335;28;20492;-69
2023/11/07 12:31:13;;;;;;;4.13;4.03;;;20.10;77.00;;;;;;5043961;28;20484;-69
2023/11/07 12:33:42;;;;;;;4.50;4.40;;;20.20;77.10;;;;;;5045753;28;20535;-70
2023/11/07 12:36:13;;;;;;;4.37;4.13;;;20.10;77.00;;;;;;5044550;28;20444;-69
2023/11/07 12:38:40;;;;;;;4.20;4.00;;;20.20;77.00;;;;;;5042349;28;20968;-69
2023/11/07 12:41:08;;;;;;;4.53;4.43;;;20.20;77.10;;;;;;5042722;28;20833;-69
2023/11/07 12:43:40;;;;;;;3.80;3.80;;;20.20;76.90;;;;;;5045581;28;20436;-69
2023/11/07 12:46:12;;;;;;;3.90;3.80;;;20.20;76.90;;;;;;5044730;28;20440;-69
2023/11/07 12:48:41;;;;;;;4.40;4.30;;;20.20;76.80;;;;;;5042065;28;20465;-69
2023/11/07 12:51:09;;;;;;;4.20;4.07;;;20.20;76.70;;;;;;5042516;28;20476;-69
2023/11/07 12:53:47;;;;;;;4.47;4.37;;;20.20;76.70;;;;;;5045485;28;20445;-69